Terminal Aerodrome Forecast
Issued by NWS King Salmon, AK

Home | Current Version | Previous Version | Text Only | Print | Product List | Glossary On
Versions: 1 2 3 4 5 6 7 8 9 10 11 12 13 14 15 16 17 18 19 20 21 22 23 24 25 26 27 28 29 30 31 32 33 34 35 36 37 38 39 40 41 42 43 44
000
FTAK31 PANC 232052 AAC
TAFAKN
TAF AMD
PAKN 232052Z 2321/2418 19010KT P6SM OVC012
     FM240000 22012KT P6SM BKN020
     FM240700 20010KT P6SM OVC005
     FM241000 20009KT 2SM BR OVC003=

USA.gov is the U.S. government's official web portal to all federal, state and local government web resources and services.